Bingham, Nebraska
Current Conditions -  °F | °C
As of 4:53 AM on Saturday 25 Oct 2014 (Local Time) from KAIA Reporting Station
Clear Clear  
Wind Chill: 32°   Ceiling: Unl
Heat Index: 37°   Visibility: 10mi
Dew Point: 33°   Wind: 7mph
Humidity: 86%   Direction: 360°N
Pressure: 30.15"   Gusts: NA
Location:  42.02°N, 102.09°W
Report Text: KAIA 251053Z AUTO 36006KT 10SM CLR 03/01 A3015 RMK AO2 SLP188 T00280006 $
Loading
Personal Weather Stations






























Interactive Weather Map
Tropical Storm Tracking
New forecast layout! Learn more

10-Day Weather Forecast

Advertisements
Track Severe Weather on mobile